Time;durP1;ratioP1;P1;durP2;ratioP2;P2;SDS_P1;SDS_P2;PMS_P1;PMS_P2;Temp;Humidity;BMP_temperature;BMP_pressure;BME280_temperature;BME280_humidity;BME280_pressure;Samples;Min_cycle;Max_cycle;Signal;HPM_P1;HPM_P2
2023/07/31 00:01:42;;;;;;;0.10;0.10;;;;;;;19.00;nan;100451.44;5051444;28;20036;-82
2023/07/31 00:04:07;;;;;;;0.10;0.10;;;;;;;18.99;nan;100450.59;5043867;28;20083;-82
2023/07/31 00:06:33;;;;;;;0.10;0.10;;;;;;;18.98;nan;100448.97;5053464;28;20029;-86
2023/07/31 00:08:58;;;;;;;0.10;0.10;;;;;;;19.00;nan;100448.75;5051414;28;20389;-82
2023/07/31 00:11:23;;;;;;;0.10;0.10;;;;;;;18.99;nan;100442.56;5044762;28;20036;-82
2023/07/31 00:13:49;;;;;;;0.10;0.10;;;;;;;18.99;nan;100445.22;5051932;28;20036;-82
2023/07/31 00:16:14;;;;;;;0.10;0.10;;;;;;;18.99;nan;100447.91;5042811;28;20037;-82
2023/07/31 00:18:42;;;;;;;0.10;0.10;;;;;;;19.00;nan;100449.56;5050796;28;20099;-82
2023/07/31 00:21:07;;;;;;;0.10;0.10;;;;;;;18.99;nan;100450.59;5041424;28;20041;-82
2023/07/31 00:23:33;;;;;;;0.10;0.10;;;;;;;19.00;nan;100443.41;5043228;28;20537;-84
2023/07/31 00:25:58;;;;;;;0.10;0.10;;;;;;;18.98;nan;100440.91;5042839;28;20059;-83
2023/07/31 00:28:23;;;;;;;0.10;0.10;;;;;;;18.98;nan;100440.91;5052959;28;20036;-82
2023/07/31 00:30:48;;;;;;;0.10;0.10;;;;;;;18.96;nan;100437.63;5048982;28;20279;-83
2023/07/31 00:33:14;;;;;;;0.10;0.10;;;;;;;18.98;nan;100440.09;5053610;28;20033;-83
2023/07/31 00:35:39;;;;;;;0.10;0.10;;;;;;;18.97;nan;100436.56;5049414;28;20769;-83
2023/07/31 00:38:04;;;;;;;0.10;0.10;;;;;;;18.97;nan;100441.13;5055147;28;20036;-83
2023/07/31 00:40:34;;;;;;;0.10;0.10;;;;;;;18.94;nan;100439.69;5053096;28;20133;-83
2023/07/31 00:42:59;;;;;;;0.10;0.10;;;;;;;18.92;nan;100436.38;5052814;28;20170;-84
2023/07/31 00:45:27;;;;;;;0.10;0.10;;;;;;;18.89;nan;100426.91;5047504;28;20103;-82
2023/07/31 00:47:52;;;;;;;0.10;0.10;;;;;;;18.89;nan;100421.53;5051414;28;20287;-83
2023/07/31 00:50:18;;;;;;;0.10;0.10;;;;;;;18.90;nan;100422.38;5048292;28;20184;-83
2023/07/31 00:52:43;;;;;;;0.10;0.10;;;;;;;18.90;nan;100422.38;5038749;28;20060;-83
2023/07/31 00:55:08;;;;;;;0.10;0.10;;;;;;;18.86;nan;100416.63;5052907;28;20451;-83
2023/07/31 00:57:36;;;;;;;0.10;0.10;;;;;;;18.86;nan;100421.16;5053018;28;20055;-82
2023/07/31 01:00:01;;;;;;;0.10;0.10;;;;;;;18.85;nan;100411.44;5054150;28;20284;-84
2023/07/31 01:02:27;;;;;;;0.10;0.10;;;;;;;18.82;nan;100412.69;5051660;28;20087;-83
2023/07/31 01:04:52;;;;;;;0.10;0.10;;;;;;;18.77;nan;100409.00;5060327;28;20498;-83
2023/07/31 01:07:47;;;;;;;0.10;0.10;;;;;;;18.75;nan;100409.16;5041701;28;20049;-83
2023/07/31 01:10:19;;;;;;;0.10;0.10;;;;;;;18.72;nan;100411.47;5050528;28;20029;-83
2023/07/31 01:12:46;;;;;;;0.10;0.10;;;;;;;18.70;nan;100411.66;5060128;28;20037;-86
2023/07/31 01:15:11;;;;;;;0.10;0.10;;;;;;;18.67;nan;100412.91;5037441;28;20029;-83
2023/07/31 01:17:41;;;;;;;0.10;0.10;;;;;;;18.65;nan;100414.13;5055749;28;20148;-83
2023/07/31 01:20:29;;;;;;;0.10;0.10;;;;;;;18.61;nan;100410.22;5036172;28;20100;-81
2023/07/31 01:23:03;;;;;;;0.10;0.10;;;;;;;18.61;nan;100394.16;5053384;28;20378;-83
2023/07/31 01:25:46;;;;;;;0.10;0.10;;;;;;;18.61;nan;100391.47;5049368;28;20029;-83
2023/07/31 01:28:18;;;;;;;0.10;0.10;;;;;;;18.59;nan;100397.06;5053950;28;20064;-82
2023/07/31 01:30:48;;;;;;;0.10;0.10;;;;;;;18.60;nan;100395.19;5050393;28;20115;-83
2023/07/31 01:33:15;;;;;;;0.10;0.10;;;;;;;18.57;nan;100401.78;5053495;28;20037;-82
2023/07/31 01:35:44;;;;;;;0.10;0.10;;;;;;;18.58;nan;100408.78;5054250;28;20034;-84
2023/07/31 01:38:09;;;;;;;0.10;0.10;;;;;;;18.57;nan;100403.66;5053527;28;20052;-82
2023/07/31 01:40:34;;;;;;;0.10;0.10;;;;;;;18.57;nan;100400.97;5055506;28;20037;-84
2023/07/31 01:43:00;;;;;;;0.10;0.10;;;;;;;18.55;nan;100411.06;5050265;28;20104;-82
2023/07/31 01:45:25;;;;;;;0.10;0.10;;;;;;;18.54;nan;100406.72;5058531;28;20029;-82
2023/07/31 01:47:50;;;;;;;0.10;0.10;;;;;;;18.51;nan;100391.91;5054462;28;20506;-83
2023/07/31 01:50:16;;;;;;;0.10;0.10;;;;;;;18.52;nan;100398.91;5057288;28;20056;-83
2023/07/31 01:52:41;;;;;;;0.10;0.10;;;;;;;18.49;nan;100393.13;5047160;28;20276;-82
2023/07/31 01:55:07;;;;;;;0.10;0.10;;;;;;;18.50;nan;100389.44;5044663;28;20497;-83
2023/07/31 01:57:32;;;;;;;0.10;0.10;;;;;;;18.49;nan;100391.28;5056902;28;20043;-82
2023/07/31 01:59:57;;;;;;;0.10;0.10;;;;;;;18.48;nan;100381.59;5051104;28;20082;-84
2023/07/31 02:02:25;;;;;;;0.10;0.10;;;;;;;18.46;nan;100389.03;5062613;28;20029;-82
2023/07/31 02:04:51;;;;;;;0.10;0.10;;;;;;;18.47;nan;100382.63;5056957;28;20712;-83
2023/07/31 02:07:17;;;;;;;0.10;0.10;;;;;;;18.49;nan;100382.44;5057093;28;20312;-83
2023/07/31 02:09:42;;;;;;;0.10;0.10;;;;;;;18.46;nan;100375.63;5028436;28;20037;-84
2023/07/31 02:12:11;;;;;;;0.10;0.10;;;;;;;18.45;nan;100374.81;5056955;28;20124;-83
2023/07/31 02:14:36;;;;;;;0.10;0.10;;;;;;;18.44;nan;100375.84;5049197;28;20088;-83
2023/07/31 02:17:01;;;;;;;0.10;0.10;;;;;;;18.46;nan;100373.78;5030549;28;20037;-83
2023/07/31 02:19:26;;;;;;;0.10;0.10;;;;;;;18.46;nan;100365.75;5057315;28;20415;-83
2023/07/31 02:21:52;;;;;;;0.10;0.10;;;;;;;18.44;nan;100366.97;5056204;28;20095;-83
2023/07/31 02:24:17;;;;;;;0.10;0.10;;;;;;;18.43;nan;100360.00;5048081;28;20681;-85
2023/07/31 02:26:42;;;;;;;0.10;0.10;;;;;;;18.44;nan;100353.59;5056423;28;20033;-83
2023/07/31 02:29:08;;;;;;;0.10;0.10;;;;;;;18.42;nan;100356.50;5056594;28;20132;-83
2023/07/31 02:31:34;;;;;;;0.10;0.10;;;;;;;18.41;nan;100354.03;5057704;28;20029;-85
2023/07/31 02:33:59;;;;;;;0.10;0.10;;;;;;;18.41;nan;100360.19;5049551;28;20033;-83
2023/07/31 02:36:24;;;;;;;0.10;0.10;;;;;;;18.40;nan;100357.72;5056353;28;20264;-83
2023/07/31 02:38:49;;;;;;;0.10;0.10;;;;;;;18.41;nan;100356.69;5053881;28;20067;-83
2023/07/31 02:41:15;;;;;;;0.10;0.10;;;;;;;18.39;nan;100356.88;5043256;28;20041;-83
2023/07/31 02:43:40;;;;;;;0.10;0.10;;;;;;;18.39;nan;100351.53;5052575;28;20062;-82
2023/07/31 02:46:05;;;;;;;0.10;0.10;;;;;;;18.38;nan;100354.44;5055152;28;20286;-82
2023/07/31 02:48:31;;;;;;;0.10;0.10;;;;;;;18.38;nan;100355.25;5052294;28;20033;-82
2023/07/31 02:50:56;;;;;;;0.10;0.10;;;;;;;18.36;nan;100349.28;5049623;28;20298;-82
2023/07/31 02:53:22;;;;;;;0.10;0.10;;;;;;;18.34;nan;100353.19;5052073;28;20108;-82
2023/07/31 02:55:48;;;;;;;0.10;0.10;;;;;;;18.33;nan;100352.38;5053333;28;20029;-82
2023/07/31 02:58:13;;;;;;;0.10;0.10;;;;;;;18.33;nan;100354.22;5049472;28;20052;-84
2023/07/31 03:00:42;;;;;;;0.10;0.10;;;;;;;18.31;nan;100350.94;5049338;28;20459;-83
2023/07/31 03:03:08;;;;;;;0.10;0.10;;;;;;;18.32;nan;100355.25;5048630;28;20102;-82
2023/07/31 03:05:33;;;;;;;0.10;0.10;;;;;;;18.29;nan;100356.50;5055055;28;20064;-82
2023/07/31 03:07:58;;;;;;;0.10;0.10;;;;;;;18.28;nan;100349.47;5052463;28;20036;-83
2023/07/31 03:10:23;;;;;;;0.10;0.10;;;;;;;18.27;nan;100350.53;5053759;28;20382;-84
2023/07/31 03:12:49;;;;;;;0.10;0.10;;;;;;;18.25;nan;100348.03;5052752;28;20284;-82
2023/07/31 03:15:14;;;;;;;0.10;0.10;;;;;;;18.27;nan;100349.69;5051991;28;20119;-82
2023/07/31 03:17:39;;;;;;;0.10;0.10;;;;;;;18.22;nan;100345.78;5048599;28;20346;-82
2023/07/31 03:20:05;;;;;;;0.10;0.10;;;;;;;18.25;nan;100356.06;5046355;28;20037;-82
2023/07/31 03:22:30;;;;;;;0.10;0.10;;;;;;;18.22;nan;100351.13;5048830;28;20115;-82
2023/07/31 03:24:55;;;;;;;0.10;0.10;;;;;;;18.18;nan;100357.09;5053149;28;20506;-82
2023/07/31 03:27:21;;;;;;;0.10;0.10;;;;;;;18.19;nan;100353.41;5053671;28;20051;-82
2023/07/31 03:29:46;;;;;;;0.10;0.10;;;;;;;18.20;nan;100352.38;5052863;28;20276;-86
2023/07/31 03:32:11;;;;;;;0.10;0.10;;;;;;;18.16;nan;100348.47;5047234;28;20507;-82
2023/07/31 03:34:37;;;;;;;0.10;0.10;;;;;;;18.16;nan;100348.47;5052534;28;20302;-83
2023/07/31 03:37:04;;;;;;;0.10;0.10;;;;;;;18.17;nan;100352.78;5053031;28;20291;-84
2023/07/31 03:39:30;;;;;;;0.10;0.10;;;;;;;18.14;nan;100343.34;5054236;28;20038;-82
2023/07/31 03:41:55;;;;;;;0.10;0.10;;;;;;;18.15;nan;100346.81;5051217;28;20049;-83
2023/07/31 03:44:20;;;;;;;0.10;0.10;;;;;;;18.13;nan;100351.56;5049095;28;20069;-82
2023/07/31 03:46:45;;;;;;;0.10;0.10;;;;;;;18.15;nan;100350.31;5043423;28;20037;-83
2023/07/31 03:49:11;;;;;;;0.10;0.10;;;;;;;18.15;nan;100344.97;5055153;28;20287;-82
2023/07/31 03:51:36;;;;;;;0.10;0.10;;;;;;;18.14;nan;100345.16;5044161;28;20517;-83
2023/07/31 03:54:01;;;;;;;0.10;0.10;;;;;;;18.12;nan;100345.38;5048727;28;20142;-82
2023/07/31 03:56:26;;;;;;;0.10;0.10;;;;;;;18.13;nan;100348.88;5049647;28;20282;-83
2023/07/31 03:58:52;;;;;;;0.10;0.10;;;;;;;18.09;nan;100344.94;5045104;28;20107;-83
2023/07/31 04:01:19;;;;;;;0.10;0.10;;;;;;;18.09;nan;100339.59;5052167;28;20033;-83
2023/07/31 04:03:44;;;;;;;0.10;0.10;;;;;;;18.09;nan;100339.59;5049549;28;20029;-82
2023/07/31 04:06:10;;;;;;;0.10;0.10;;;;;;;18.08;nan;100338.78;5051856;28;20037;-83
2023/07/31 04:08:35;;;;;;;0.10;0.10;;;;;;;18.08;nan;100335.28;5050749;28;20340;-83
2023/07/31 04:11:01;;;;;;;0.10;0.10;;;;;;;18.06;nan;100340.03;5034280;28;20129;-82
2023/07/31 04:13:27;;;;;;;0.10;0.10;;;;;;;18.04;nan;100337.53;5048365;28;20041;-83
2023/07/31 04:15:52;;;;;;;0.15;0.15;;;;;;;18.03;nan;100341.25;5047754;28;20037;-84
2023/07/31 04:18:18;;;;;;;0.10;0.10;;;;;;;18.02;nan;100351.16;5051744;28;20028;-83
2023/07/31 04:20:43;;;;;;;0.10;0.10;;;;;;;18.04;nan;100365.16;5054008;28;20454;-82
2023/07/31 04:23:08;;;;;;;0.10;0.10;;;;;;;18.06;nan;100364.09;5054072;28;20045;-83
2023/07/31 04:25:34;;;;;;;0.10;0.10;;;;;;;18.06;nan;100358.75;5046308;28;20040;-83
2023/07/31 04:28:00;;;;;;;0.10;0.10;;;;;;;18.06;nan;100358.75;5046761;28;20037;-83
2023/07/31 04:30:25;;;;;;;0.10;0.10;;;;;;;18.06;nan;100356.91;5054952;28;20071;-82
2023/07/31 04:32:50;;;;;;;0.10;0.10;;;;;;;18.08;nan;100351.34;5049671;28;20048;-83
2023/07/31 04:35:16;;;;;;;0.10;0.10;;;;;;;18.09;nan;100342.28;5055864;28;20033;-83
2023/07/31 04:37:41;;;;;;;0.10;0.10;;;;;;;18.11;nan;100340.22;5055181;28;20052;-83
2023/07/31 04:40:08;;;;;;;0.10;0.10;;;;;;;18.10;nan;100335.91;5051560;28;20033;-83
2023/07/31 04:42:34;;;;;;;0.10;0.10;;;;;;;18.13;nan;100335.50;5043626;28;20035;-83
2023/07/31 04:44:59;;;;;;;0.10;0.10;;;;;;;18.11;nan;100346.41;5056286;28;20032;-82
2023/07/31 04:47:24;;;;;;;0.10;0.10;;;;;;;18.14;nan;100342.47;5055048;28;20033;-82
2023/07/31 04:49:50;;;;;;;0.10;0.10;;;;;;;18.15;nan;100354.84;5050466;28;20041;-83
2023/07/31 04:52:15;;;;;;;0.20;0.20;;;;;;;18.16;nan;100345.78;5045186;28;21109;-83
2023/07/31 04:54:40;;;;;;;0.10;0.10;;;;;;;18.18;nan;100335.69;5052857;28;20048;-83
2023/07/31 04:57:06;;;;;;;0.10;0.10;;;;;;;18.21;nan;100343.31;5051123;28;20037;-83
2023/07/31 04:59:31;;;;;;;0.10;0.10;;;;;;;18.25;nan;100336.50;5033696;28;20033;-82
2023/07/31 05:01:56;;;;;;;0.10;0.10;;;;;;;18.26;nan;100340.84;5045760;28;20495;-82
2023/07/31 05:04:22;;;;;;;0.10;0.10;;;;;;;18.29;nan;100336.94;5052177;28;20108;-82
2023/07/31 05:06:47;;;;;;;0.10;0.10;;;;;;;18.31;nan;100335.69;5051042;28;20276;-83
2023/07/31 05:09:13;;;;;;;0.10;0.10;;;;;;;18.31;nan;100335.69;5053165;28;20040;-83
2023/07/31 05:11:42;;;;;;;0.10;0.10;;;;;;;18.32;nan;100340.00;5051417;28;20033;-83
2023/07/31 05:14:11;;;;;;;0.10;0.10;;;;;;;18.35;nan;100339.63;5048685;28;20051;-83
2023/07/31 05:16:36;;;;;;;0.10;0.10;;;;;;;18.41;nan;100335.28;5032281;28;20037;-84
2023/07/31 05:19:02;;;;;;;0.10;0.10;;;;;;;18.43;nan;100336.72;5043871;28;20041;-83
2023/07/31 05:21:28;;;;;;;0.10;0.10;;;;;;;18.44;nan;100338.34;5054307;28;20515;-83
2023/07/31 05:23:54;;;;;;;0.10;0.10;;;;;;;18.47;nan;100331.75;5051539;28;20041;-82
2023/07/31 05:26:19;;;;;;;0.10;0.10;;;;;;;18.50;nan;100339.38;5050316;28;20033;-83
2023/07/31 05:28:44;;;;;;;0.10;0.10;;;;;;;18.52;nan;100328.44;5053463;28;20025;-83
2023/07/31 05:31:10;;;;;;;0.10;0.10;;;;;;;18.49;nan;100327.00;5054474;28;20053;-83
2023/07/31 05:33:35;;;;;;;0.20;0.20;;;;;;;18.49;nan;100324.34;5055125;28;20098;-83
2023/07/31 05:36:01;;;;;;;0.10;0.10;;;;;;;18.52;nan;100325.78;5058332;28;20040;-83
2023/07/31 05:38:26;;;;;;;0.10;0.10;;;;;;;18.56;nan;100332.38;5054822;28;20033;-81
2023/07/31 05:40:51;;;;;;;0.10;0.10;;;;;;;18.62;nan;100318.97;5042096;28;20052;-84
2023/07/31 05:43:17;;;;;;;0.10;0.10;;;;;;;18.69;nan;100324.31;5057085;28;20451;-83
2023/07/31 05:45:45;;;;;;;0.10;0.10;;;;;;;18.70;nan;100328.63;5039817;28;20073;-82
2023/07/31 05:48:11;;;;;;;0.10;0.10;;;;;;;18.69;nan;100318.97;5039644;28;20038;-83
2023/07/31 05:50:39;;;;;;;0.10;0.10;;;;;;;18.73;nan;100324.69;5047874;28;20171;-83
2023/07/31 05:53:06;;;;;;;0.10;0.10;;;;;;;18.78;nan;100322.25;5047684;28;20036;-82
2023/07/31 05:55:31;;;;;;;0.10;0.10;;;;;;;18.83;nan;100319.75;5059762;28;20038;-84
2023/07/31 05:58:02;;;;;;;0.10;0.10;;;;;;;18.82;nan;100324.28;5046547;28;20099;-82
2023/07/31 06:00:33;;;;;;;0.10;0.10;;;;;;;18.83;nan;100327.78;5051443;28;20107;-83
2023/07/31 06:02:58;;;;;;;0.10;0.10;;;;;;;18.80;nan;100322.84;5054337;28;20033;-84
2023/07/31 06:05:24;;;;;;;0.10;0.10;;;;;;;18.81;nan;100319.97;5048079;28;20070;-83
2023/07/31 06:07:50;;;;;;;0.15;0.15;;;;;;;18.79;nan;100314.00;5049003;28;20041;-83
2023/07/31 06:10:15;;;;;;;0.10;0.10;;;;;;;18.81;nan;100313.81;5046255;28;20502;-83
2023/07/31 06:12:41;;;;;;;0.10;0.10;;;;;;;18.78;nan;100312.38;5057349;28;20530;-83
2023/07/31 06:15:07;;;;;;;0.10;0.10;;;;;;;18.78;nan;100306.16;5071535;28;20048;-83
2023/07/31 06:17:33;;;;;;;0.10;0.10;;;;;;;18.80;nan;100310.28;5051463;28;20040;-82
2023/07/31 06:19:58;;;;;;;0.10;0.10;;;;;;;18.80;nan;100309.47;5044478;28;20033;-81
2023/07/31 06:22:26;;;;;;;0.10;0.10;;;;;;;18.80;nan;100312.97;5052770;28;20079;-82
2023/07/31 06:24:52;;;;;;;0.10;0.10;;;;;;;18.84;nan;100303.47;5052514;28;20033;-82
2023/07/31 06:27:18;;;;;;;0.10;0.10;;;;;;;18.89;nan;100311.69;5056933;28;20036;-82
2023/07/31 06:29:43;;;;;;;0.10;0.10;;;;;;;19.01;nan;100308.38;5058482;28;20111;-83
2023/07/31 06:32:12;;;;;;;0.10;0.10;;;;;;;19.09;nan;100300.91;5042469;28;20037;-83
2023/07/31 06:34:37;;;;;;;0.10;0.10;;;;;;;19.27;nan;100299.38;5063829;28;20110;-81
2023/07/31 06:37:02;;;;;;;0.10;0.10;;;;;;;19.49;nan;100299.88;5055515;28;20468;-81
2023/07/31 06:39:28;;;;;;;0.10;0.10;;;;;;;19.71;nan;100300.34;5057585;28;20063;-82
2023/07/31 06:41:53;;;;;;;0.10;0.10;;;;;;;19.89;nan;100300.44;5064118;28;20032;-81
2023/07/31 06:44:19;;;;;;;0.10;0.10;;;;;;;19.97;nan;100301.19;5051841;28;20033;-83
2023/07/31 06:46:44;;;;;;;0.10;0.10;;;;;;;19.99;nan;100310.69;5048016;28;20055;-82
2023/07/31 06:49:15;;;;;;;0.10;0.10;;;;;;;19.91;nan;100316.31;5072349;28;20049;-83
2023/07/31 06:51:46;;;;;;;0.10;0.10;;;;;;;19.85;nan;100307.28;5054389;28;20771;-83
2023/07/31 06:54:17;;;;;;;0.10;0.10;;;;;;;19.85;nan;100304.59;5063609;28;20037;-83
2023/07/31 06:56:43;;;;;;;0.10;0.10;;;;;;;19.90;nan;100314.66;5058955;28;20311;-84
2023/07/31 06:59:11;;;;;;;0.10;0.10;;;;;;;20.04;nan;100310.84;5060192;28;20029;-84
2023/07/31 07:01:36;;;;;;;0.00;0.00;;;;;;;20.05;nan;100306.31;5059093;28;20048;-83
2023/07/31 07:04:04;;;;;;;0.10;0.10;;;;;;;20.00;nan;100308.81;5054777;28;20037;-84
2023/07/31 07:06:30;;;;;;;0.10;0.10;;;;;;;20.06;nan;100318.69;5048357;28;20102;-83
2023/07/31 07:08:55;;;;;;;0.10;0.10;;;;;;;20.10;nan;100315.34;5053316;28;20064;-84
2023/07/31 07:11:20;;;;;;;0.10;0.10;;;;;;;20.24;nan;100308.00;5052000;28;20052;-83
2023/07/31 07:13:46;;;;;;;0.10;0.10;;;;;;;20.40;nan;100308.44;5052531;28;20120;-83
2023/07/31 07:16:11;;;;;;;0.10;0.10;;;;;;;20.51;nan;100305.03;5048164;28;20275;-84
2023/07/31 07:18:37;;;;;;;0.10;0.10;;;;;;;20.56;nan;100310.59;5060461;28;20127;-84
2023/07/31 07:21:05;;;;;;;0.10;0.10;;;;;;;20.72;nan;100306.50;5043555;28;20059;-83
2023/07/31 07:23:31;;;;;;;0.10;0.10;;;;;;;20.94;nan;100301.50;5062146;28;20136;-83
2023/07/31 07:25:57;;;;;;;0.10;0.10;;;;;;;21.29;nan;100301.66;5050763;28;20057;-84
2023/07/31 07:28:22;;;;;;;0.10;0.10;;;;;;;21.37;nan;100311.28;5063301;28;20063;-84
2023/07/31 07:30:53;;;;;;;0.10;0.10;;;;;;;21.34;nan;100301.78;5048925;28;20530;-83
2023/07/31 07:33:21;;;;;;;0.10;0.10;;;;;;;21.27;nan;100308.31;5049714;28;20094;-84
2023/07/31 07:35:47;;;;;;;0.10;0.10;;;;;;;21.21;nan;100301.97;5048794;28;20052;-83
2023/07/31 07:38:19;;;;;;;0.10;0.10;;;;;;;21.19;nan;100302.22;5044840;28;20037;-84
2023/07/31 07:40:46;;;;;;;0.10;0.10;;;;;;;21.20;nan;100303.84;5057586;28;20082;-85
2023/07/31 07:43:12;;;;;;;0.08;0.08;;;;;;;21.15;nan;100305.56;5052720;28;20040;-82
2023/07/31 07:45:37;;;;;;;0.10;0.10;;;;;;;21.18;nan;100297.84;5048309;28;20048;-84
2023/07/31 07:48:03;;;;;;;0.10;0.10;;;;;;;21.23;nan;100302.56;5054354;28;20090;-85
2023/07/31 07:50:29;;;;;;;0.10;0.10;;;;;;;21.31;nan;100294.19;5058144;28;20041;-84
2023/07/31 07:52:55;;;;;;;0.10;0.10;;;;;;;21.47;nan;100297.28;5066270;28;20041;-84
2023/07/31 07:55:20;;;;;;;0.10;0.10;;;;;;;21.58;nan;100291.94;5056302;28;20432;-83
2023/07/31 07:57:50;;;;;;;0.10;0.10;;;;;;;21.65;nan;100294.53;5049799;28;20045;-83
2023/07/31 08:00:16;;;;;;;0.10;0.10;;;;;;;21.62;nan;100301.22;5044343;28;20033;-84
2023/07/31 08:02:42;;;;;;;0.10;0.10;;;;;;;21.65;nan;100289.16;5046829;28;20045;-83
2023/07/31 08:05:08;;;;;;;0.10;0.10;;;;;;;21.73;nan;100293.38;5047211;28;20059;-84
2023/07/31 08:07:34;;;;;;;0.10;0.10;;;;;;;21.96;nan;100281.84;5049383;28;20380;-83
2023/07/31 08:09:59;;;;;;;0.00;0.00;;;;;;;22.45;nan;100291.38;5050154;28;20087;-83
2023/07/31 08:12:25;;;;;;;0.10;0.10;;;;;;;23.07;nan;100273.75;5046884;28;20047;-84
2023/07/31 08:14:53;;;;;;;0.10;0.10;;;;;;;23.66;nan;100270.75;5048568;28;20030;-83
2023/07/31 08:17:19;;;;;;;0.00;0.00;;;;;;;23.99;nan;100274.56;5035285;28;20052;-84
2023/07/31 08:19:47;;;;;;;0.00;0.00;;;;;;;24.32;nan;100265.59;5059372;28;20041;-84
2023/07/31 08:22:14;;;;;;;0.00;0.00;;;;;;;24.68;nan;100272.31;5047866;28;20033;-84
2023/07/31 08:24:39;;;;;;;0.00;0.00;;;;;;;24.88;nan;100262.81;5051885;28;20043;-83
2023/07/31 08:27:15;;;;;;;0.08;0.08;;;;;;;25.23;nan;100254.28;5052936;28;20046;-82
2023/07/31 08:29:40;;;;;;;0.00;0.00;;;;;;;25.24;nan;100258.63;5054507;28;20032;-83
2023/07/31 08:32:06;;;;;;;0.00;0.00;;;;;;;24.97;nan;100255.88;5053729;28;20029;-82
2023/07/31 08:34:34;;;;;;;0.00;0.00;;;;;;;24.79;nan;100252.44;5045200;28;20041;-82
2023/07/31 08:37:02;;;;;;;0.00;0.00;;;;;;;24.87;nan;100234.13;5038912;28;20068;-83
2023/07/31 08:39:30;;;;;;;0.00;0.00;;;;;;;24.77;nan;100238.34;5051124;28;20064;-82
2023/07/31 08:42:02;;;;;;;0.00;0.00;;;;;;;25.05;nan;100224.84;5047265;28;20045;-83
2023/07/31 08:44:32;;;;;;;0.00;0.00;;;;;;;25.70;nan;100233.88;5050587;28;20056;-83
2023/07/31 08:47:00;;;;;;;0.00;0.00;;;;;;;25.61;nan;100238.94;5054246;28;20029;-83
2023/07/31 08:49:29;;;;;;;0.00;0.00;;;;;;;25.14;nan;100224.13;5053486;28;20472;-83
2023/07/31 08:51:57;;;;;;;0.00;0.00;;;;;;;24.74;nan;100228.06;5050591;28;20465;-84
2023/07/31 08:54:23;;;;;;;0.10;0.10;;;;;;;24.43;nan;100226.84;5042598;28;20037;-84
2023/07/31 08:56:50;;;;;;;0.00;0.00;;;;;;;24.33;nan;100213.97;5046262;28;20041;-84
2023/07/31 08:59:18;;;;;;;0.00;0.00;;;;;;;25.08;nan;100211.63;5048774;28;20307;-83
2023/07/31 09:01:50;;;;;;;0.00;0.00;;;;;;;25.66;nan;100216.50;5048296;28;20052;-83
2023/07/31 09:04:20;;;;;;;0.00;0.00;;;;;;;25.43;nan;100207.63;5052817;28;20069;-84
2023/07/31 09:06:48;;;;;;;0.00;0.00;;;;;;;25.45;nan;100212.81;5051180;28;20419;-82
2023/07/31 09:09:13;;;;;;;0.00;0.00;;;;;;;25.98;nan;100214.59;5044600;28;20072;-85
2023/07/31 09:11:42;;;;;;;0.00;0.00;;;;;;;26.11;nan;100207.06;5050828;28;20032;-83
2023/07/31 09:14:40;;;;;;;0.00;0.00;;;;;;;25.69;nan;100205.94;5050218;28;20037;-85
2023/07/31 09:17:06;;;;;;;0.00;0.00;;;;;;;26.16;nan;100213.31;5051763;28;20041;-83
2023/07/31 09:19:38;;;;;;;0.00;0.00;;;;;;;26.38;nan;100207.72;5053000;28;20044;-84
2023/07/31 09:22:05;;;;;;;0.00;0.00;;;;;;;26.73;nan;100203.53;5047129;28;20037;-83
2023/07/31 09:24:32;;;;;;;0.00;0.00;;;;;;;27.48;nan;100216.69;5047427;28;20384;-84
2023/07/31 09:26:59;;;;;;;0.00;0.00;;;;;;;27.56;nan;100205.31;5047615;28;20044;-84
2023/07/31 09:29:26;;;;;;;0.00;0.00;;;;;;;27.13;nan;100207.44;5049073;28;20675;-85
2023/07/31 09:31:53;;;;;;;0.00;0.00;;;;;;;27.10;nan;100203.38;5048070;28;20474;-84
2023/07/31 09:34:20;;;;;;;0.00;0.00;;;;;;;26.54;nan;100194.28;5042364;28;20044;-84
2023/07/31 09:36:48;;;;;;;0.00;0.00;;;;;;;26.39;nan;100190.41;5052137;28;20060;-84
2023/07/31 09:39:16;;;;;;;0.00;0.00;;;;;;;26.24;nan;100204.69;5046693;28;20037;-84
2023/07/31 09:41:53;;;;;;;0.00;0.00;;;;;;;26.19;nan;100196.50;5031928;28;20068;-84
2023/07/31 09:44:22;;;;;;;0.00;0.00;;;;;;;26.28;nan;100181.38;5052262;28;20172;-83
2023/07/31 09:46:48;;;;;;;0.00;0.00;;;;;;;26.27;nan;100182.47;5051189;28;20141;-84
2023/07/31 09:49:17;;;;;;;0.00;0.00;;;;;;;27.12;nan;100173.22;5051650;28;20029;-85
2023/07/31 09:51:43;;;;;;;0.00;0.00;;;;;;;27.65;nan;100176.50;5042157;28;20041;-84
2023/07/31 09:54:13;;;;;;;0.00;0.00;;;;;;;28.27;nan;100177.19;5041756;28;20040;-83
2023/07/31 09:56:51;;;;;;;0.00;0.00;;;;;;;27.81;nan;100163.69;5055721;28;20411;-83
2023/07/31 09:59:18;;;;;;;0.00;0.00;;;;;;;27.17;nan;100166.97;5050573;28;20419;-85
2023/07/31 10:01:46;;;;;;;0.00;0.00;;;;;;;26.67;nan;100166.63;5055362;28;20482;-84
2023/07/31 10:04:13;;;;;;;0.00;0.00;;;;;;;26.27;nan;100157.28;5055662;28;20037;-84
2023/07/31 10:06:40;;;;;;;0.00;0.00;;;;;;;25.93;nan;100171.19;5054643;28;20045;-83
2023/07/31 10:09:11;;;;;;;0.00;0.00;;;;;;;25.47;nan;100151.09;5058420;28;20113;-84
2023/07/31 10:11:52;;;;;;;0.00;0.00;;;;;;;25.22;nan;100155.25;5053124;28;20422;-84
2023/07/31 10:14:19;;;;;;;;;;;;;;;25.08;nan;100168.34;5057912;28;20036;-84
2023/07/31 10:16:45;;;;;;;;;;;;;;;24.86;nan;100156.75;5056968;28;19920;-84
2023/07/31 10:19:13;;;;;;;0.00;0.00;;;;;;;24.80;nan;100151.31;5058977;28;20005;-85
2023/07/31 10:21:39;;;;;;;0.00;0.00;;;;;;;25.09;nan;100147.50;5051757;28;20415;-83
2023/07/31 10:24:05;;;;;;;;;;;;;;;25.13;nan;100145.94;5051278;28;20495;-83
2023/07/31 10:26:35;;;;;;;;;;;;;;;25.21;nan;100146.28;5059640;28;20016;-84
2023/07/31 10:29:01;;;;;;;;;;;;;;;25.24;nan;100133.31;5047556;28;19917;-83
2023/07/31 10:31:28;;;;;;;0.00;0.00;;;;;;;25.33;nan;100131.78;5051187;28;19916;-84
2023/07/31 10:34:00;;;;;;;0.00;0.00;;;;;;;25.93;nan;100133.25;5041646;28;20037;-84
2023/07/31 10:36:29;;;;;;;0.00;0.00;;;;;;;26.16;nan;100131.22;5056825;28;20071;-84
2023/07/31 10:38:55;;;;;;;;;;;;;;;26.05;nan;100117.63;5063549;28;20328;-84
2023/07/31 10:41:28;;;;;;;;;;;;;;;26.06;nan;100127.38;5052750;28;20378;-84
2023/07/31 10:44:02;;;;;;;;;;;;;;;25.98;nan;100133.31;5059946;28;19923;-84
2023/07/31 10:46:29;;;;;;;0.00;0.00;;;;;;;25.66;nan;100132.53;5036537;28;19916;-84
2023/07/31 10:49:00;;;;;;;0.00;0.00;;;;;;;25.39;nan;100123.44;5057827;28;20044;-84
2023/07/31 10:51:34;;;;;;;0.00;0.00;;;;;;;25.41;nan;100128.59;5043931;28;20120;-83
2023/07/31 10:54:14;;;;;;;0.00;0.00;;;;;;;25.45;nan;100124.28;5054905;28;20098;-85
2023/07/31 10:56:42;;;;;;;;;;;;;;;26.10;nan;100127.66;5051224;28;20037;-84
2023/07/31 10:59:12;;;;;;;;;;;;;;;26.89;nan;100126.53;5054873;28;19921;-83
2023/07/31 11:01:51;;;;;;;;;;;;;;;26.88;nan;100124.09;5047732;28;19923;-83
2023/07/31 11:04:23;;;;;;;0.00;0.00;;;;;;;26.32;nan;100127.47;5051507;28;19916;-83
2023/07/31 11:07:01;;;;;;;0.00;0.00;;;;;;;25.87;nan;100128.91;5049319;28;20118;-82
2023/07/31 11:09:32;;;;;;;0.00;0.00;;;;;;;25.69;nan;100130.13;5048497;28;20097;-83
2023/07/31 11:11:57;;;;;;;0.00;0.00;;;;;;;25.55;nan;100121.66;5045842;28;20033;-84
2023/07/31 11:14:23;;;;;;;0.00;0.00;;;;;;;25.52;nan;100114.03;5049318;28;20053;-84
2023/07/31 11:16:52;;;;;;;0.00;0.00;;;;;;;25.54;nan;100109.19;5050202;28;20395;-83
2023/07/31 11:19:24;;;;;;;0.00;0.00;;;;;;;25.36;nan;100104.19;5043727;28;20524;-83
2023/07/31 11:21:51;;;;;;;0.00;0.00;;;;;;;25.27;nan;100103.88;5049137;28;20044;-85
2023/07/31 11:24:17;;;;;;;0.00;0.00;;;;;;;25.46;nan;100101.56;5050846;28;20803;-82
2023/07/31 11:26:52;;;;;;;0.00;0.00;;;;;;;26.12;nan;100095.69;5053008;28;20412;-84
2023/07/31 11:29:19;;;;;;;0.00;0.00;;;;;;;26.48;nan;100103.91;5046438;28;20417;-83
2023/07/31 11:31:45;;;;;;;0.00;0.00;;;;;;;26.51;nan;100102.59;5045759;28;20049;-84
2023/07/31 11:34:10;;;;;;;0.00;0.00;;;;;;;26.26;nan;100104.13;5052868;28;20033;-84
2023/07/31 11:36:35;;;;;;;0.00;0.00;;;;;;;25.85;nan;100106.66;5052206;28;20044;-83
2023/07/31 11:39:10;;;;;;;0.00;0.00;;;;;;;25.50;nan;100105.34;5051354;28;20029;-83
2023/07/31 11:41:36;;;;;;;0.00;0.00;;;;;;;25.25;nan;100116.03;5048834;28;20037;-83
2023/07/31 11:44:01;;;;;;;0.00;0.00;;;;;;;25.10;nan;100106.69;5045939;28;20041;-82